Time;durP1;ratioP1;P1;durP2;ratioP2;P2;SDS_P1;SDS_P2;PMS_P1;PMS_P2;Temp;Humidity;BMP_temperature;BMP_pressure;BME280_temperature;BME280_humidity;BME280_pressure;Samples;Min_cycle;Max_cycle;Signal;HPM_P1;HPM_P2
2023/02/11 00:01:35;;;;;;;71.95;44.53;;;0.70;99.90;;;;;;5034340;28;20489;-88
2023/02/11 00:04:02;;;;;;;71.25;44.20;;;1.10;99.90;;;;;;5034714;28;20115;-88
2023/02/11 00:06:29;;;;;;;68.50;44.05;;;1.10;99.90;;;;;;5034588;28;20033;-89
2023/02/11 00:08:55;;;;;;;69.88;45.65;;;1.30;99.90;;;;;;5052193;28;20021;-89
2023/02/11 00:11:25;;;;;;;69.13;44.47;;;1.30;99.90;;;;;;5052501;28;20032;-88
2023/02/11 00:13:51;;;;;;;66.30;41.67;;;0.70;99.90;;;;;;5052122;28;20021;-89
2023/02/11 00:16:19;;;;;;;65.72;41.13;;;0.70;99.90;;;;;;5052331;28;20028;-88
2023/02/11 00:18:45;;;;;;;67.63;42.17;;;0.40;99.90;;;;;;5052437;28;20037;-88
2023/02/11 00:21:16;;;;;;;69.30;42.28;;;0.30;99.90;;;;;;5034525;28;20393;-89
2023/02/11 00:23:43;;;;;;;73.68;43.47;;;0.20;99.90;;;;;;5034420;28;20029;-88
2023/02/11 00:26:20;;;;;;;67.22;42.45;;;0.00;99.90;;;;;;5034714;28;20565;-89
2023/02/11 00:28:47;;;;;;;68.78;42.72;;;0.20;99.90;;;;;;5051979;28;20076;-88
2023/02/11 00:31:14;;;;;;;69.97;43.25;;;0.10;99.90;;;;;;5031064;28;20048;-88
2023/02/11 00:33:40;;;;;;;66.25;42.75;;;-0.10;99.90;;;;;;5014695;28;20112;-88
2023/02/11 00:36:08;;;;;;;70.18;43.92;;;0.00;99.90;;;;;;5035696;28;20029;-88
2023/02/11 00:38:34;;;;;;;69.53;42.13;;;0.20;99.90;;;;;;5036257;28;20037;-88
2023/02/11 00:40:59;;;;;;;72.65;44.13;;;0.00;99.90;;;;;;5036180;28;20028;-88
2023/02/11 00:43:25;;;;;;;73.15;45.85;;;0.00;99.90;;;;;;5035638;28;20029;-88
2023/02/11 00:45:51;;;;;;;68.45;42.70;;;0.10;99.90;;;;;;5018226;28;20068;-88
2023/02/11 00:48:17;;;;;;;69.18;42.15;;;0.10;99.90;;;;;;5017793;28;20021;-88
2023/02/11 00:50:42;;;;;;;67.65;41.65;;;-0.10;99.90;;;;;;5017950;28;20109;-88
2023/02/11 00:53:08;;;;;;;67.00;40.97;;;0.10;99.90;;;;;;5035632;28;20528;-89
2023/02/11 00:55:34;;;;;;;62.28;40.90;;;0.80;99.90;;;;;;5035278;28;20029;-88
2023/02/11 00:58:00;;;;;;;69.22;43.38;;;0.20;99.90;;;;;;5035255;28;20040;-88
2023/02/11 01:00:26;;;;;;;67.88;43.55;;;0.20;99.90;;;;;;5035723;28;20034;-88
2023/02/11 01:02:52;;;;;;;69.03;41.20;;;0.20;99.90;;;;;;5017534;28;20082;-89
2023/02/11 01:05:19;;;;;;;65.05;40.75;;;0.10;99.90;;;;;;5035357;28;20033;-88
2023/02/11 01:07:45;;;;;;;67.32;41.47;;;0.10;99.90;;;;;;5035360;28;20052;-88
2023/02/11 01:10:10;;;;;;;66.55;40.35;;;0.00;99.90;;;;;;5035273;28;20049;-88
2023/02/11 01:12:37;;;;;;;68.65;41.35;;;0.00;99.90;;;;;;5034844;28;20112;-88
2023/02/11 01:15:03;;;;;;;70.35;42.45;;;-0.10;99.90;;;;;;5035256;28;20032;-88
2023/02/11 01:17:29;;;;;;;67.63;42.72;;;-0.10;99.90;;;;;;5035007;28;20067;-88
2023/02/11 01:19:55;;;;;;;69.22;42.42;;;0.60;99.90;;;;;;5017326;28;20060;-89
2023/02/11 01:22:20;;;;;;;72.05;43.72;;;0.10;99.90;;;;;;5034980;28;20033;-88
2023/02/11 01:24:46;;;;;;;71.05;43.65;;;0.00;99.90;;;;;;5035049;28;20037;-88
2023/02/11 01:27:12;;;;;;;67.35;43.90;;;0.20;99.90;;;;;;5017092;28;20075;-89
2023/02/11 01:29:38;;;;;;;69.82;43.67;;;0.20;99.90;;;;;;5017176;28;20390;-88
2023/02/11 01:32:03;;;;;;;68.35;43.38;;;0.20;99.90;;;;;;5044620;28;20065;-88
2023/02/11 01:34:29;;;;;;;67.30;42.35;;;0.30;99.90;;;;;;5054939;28;20024;-88
2023/02/11 01:36:58;;;;;;;68.75;43.17;;;0.30;99.90;;;;;;5036707;28;20080;-88
2023/02/11 01:39:25;;;;;;;71.47;43.20;;;0.20;99.90;;;;;;5036721;28;20028;-88
2023/02/11 01:41:52;;;;;;;69.35;43.47;;;0.60;99.90;;;;;;5036255;28;20044;-88
2023/02/11 01:44:35;;;;;;;69.28;44.13;;;0.20;99.90;;;;;;5036763;28;20029;-88
2023/02/11 01:47:03;;;;;;;69.32;43.50;;;0.20;99.90;;;;;;5035385;28;20023;-88
2023/02/11 01:49:42;;;;;;;71.28;42.60;;;0.00;99.90;;;;;;5054656;28;20032;-89
2023/02/11 01:52:18;;;;;;;71.05;43.85;;;0.10;99.90;;;;;;5054859;28;20016;-88
2023/02/11 01:57:36;;;;;;;69.53;42.30;;;-0.20;99.90;;;;;;5054518;28;20064;-89
2023/02/11 02:00:17;;;;;;;70.38;43.53;;;-0.30;99.90;;;;;;5036408;28;20078;-88
2023/02/11 02:02:53;;;;;;;69.60;43.28;;;-0.20;99.90;;;;;;5036456;28;20021;-88
2023/02/11 02:05:27;;;;;;;71.07;43.40;;;-0.20;99.90;;;;;;5053818;28;20029;-88
2023/02/11 02:07:57;;;;;;;69.25;41.95;;;-0.20;99.90;;;;;;5053947;28;20047;-88
2023/02/11 02:10:26;;;;;;;69.40;42.80;;;-0.40;99.90;;;;;;5035812;28;20033;-88
2023/02/11 02:12:53;;;;;;;67.82;41.40;;;-0.40;99.90;;;;;;5036420;28;20508;-89
2023/02/11 02:15:29;;;;;;;72.18;43.70;;;0.00;99.90;;;;;;5053974;28;20059;-88
2023/02/11 02:18:00;;;;;;;70.60;41.53;;;-0.50;99.90;;;;;;5036016;28;20106;-88
2023/02/11 02:20:38;;;;;;;71.03;42.97;;;-0.50;99.90;;;;;;5035900;28;20836;-89
2023/02/11 02:23:27;;;;;;;68.18;41.83;;;-0.50;99.90;;;;;;5053771;28;20029;-88
2023/02/11 02:26:13;;;;;;;70.07;41.90;;;-0.50;99.90;;;;;;5035589;28;20436;-88
2023/02/11 02:29:07;;;;;;;71.07;42.28;;;-0.50;99.90;;;;;;5053543;28;20028;-88
2023/02/11 02:31:56;;;;;;;72.28;42.33;;;-0.60;99.90;;;;;;5047606;28;20083;-88
2023/02/11 02:34:39;;;;;;;69.90;42.53;;;-0.60;99.90;;;;;;5033907;28;20090;-88
2023/02/11 02:37:15;;;;;;;67.28;41.15;;;-0.60;99.90;;;;;;5033537;28;20144;-88
2023/02/11 02:39:40;;;;;;;69.45;42.17;;;-0.60;99.90;;;;;;5033396;28;20026;-87
2023/02/11 02:42:07;;;;;;;67.28;41.95;;;-0.60;99.90;;;;;;5033556;28;20110;-89
2023/02/11 02:44:33;;;;;;;70.88;43.35;;;-0.10;99.90;;;;;;5033557;28;20071;-89
2023/02/11 02:46:58;;;;;;;70.07;42.05;;;-0.70;99.90;;;;;;5015620;28;20551;-88
2023/02/11 02:49:24;;;;;;;70.15;42.08;;;-0.70;99.90;;;;;;5033524;28;20045;-88
2023/02/11 02:52:06;;;;;;;71.13;42.67;;;-0.70;99.90;;;;;;5033690;28;20371;-88
2023/02/11 02:54:35;;;;;;;72.82;42.45;;;-0.70;99.90;;;;;;5033020;28;20544;-88
2023/02/11 02:57:10;;;;;;;71.72;43.25;;;-0.70;99.90;;;;;;5033059;28;20048;-88
2023/02/11 03:00:09;;;;;;;71.55;41.95;;;-0.50;99.90;;;;;;5033516;28;20048;-88
2023/02/11 03:03:06;;;;;;;72.88;43.67;;;-0.50;99.90;;;;;;5033285;28;20041;-88
2023/02/11 03:05:38;;;;;;;69.75;40.97;;;-0.50;99.90;;;;;;5033495;28;20017;-88
2023/02/11 03:08:12;;;;;;;72.47;43.75;;;-0.50;99.90;;;;;;5015570;28;20037;-89
2023/02/11 03:10:42;;;;;;;75.28;44.03;;;-0.50;99.90;;;;;;5033749;28;20017;-88
2023/02/11 03:13:09;;;;;;;71.80;42.80;;;-0.20;99.90;;;;;;5015804;28;20033;-89
2023/02/11 03:15:42;;;;;;;70.70;42.97;;;-0.60;99.90;;;;;;5015667;28;20428;-88
2023/02/11 03:18:11;;;;;;;72.28;44.05;;;-0.60;99.90;;;;;;5015257;28;20037;-89
2023/02/11 03:20:39;;;;;;;71.60;41.55;;;-0.60;99.90;;;;;;5033022;28;20029;-88
2023/02/11 03:23:22;;;;;;;73.93;44.05;;;-0.50;99.90;;;;;;5032772;28;20535;-88
2023/02/11 03:26:09;;;;;;;70.80;42.70;;;-0.50;99.90;;;;;;5032815;28;20033;-89
2023/02/11 03:28:44;;;;;;;69.13;43.20;;;-0.40;99.90;;;;;;5032901;28;20028;-88
2023/02/11 03:31:13;;;;;;;68.90;41.95;;;-0.50;99.90;;;;;;5035294;28;20560;-88
2023/02/11 03:34:03;;;;;;;73.45;43.30;;;-0.60;99.90;;;;;;5034903;28;20045;-88
2023/02/11 03:36:44;;;;;;;73.55;43.70;;;-0.60;99.90;;;;;;4955643;28;20109;-88
2023/02/11 03:39:13;;;;;;;72.15;42.15;;;-0.30;99.90;;;;;;4972033;28;20093;-88
2023/02/11 03:41:41;;;;;;;68.45;42.47;;;-0.70;99.90;;;;;;4972030;28;20109;-88
2023/02/11 03:44:07;;;;;;;74.78;44.25;;;-0.60;99.90;;;;;;4971799;28;20483;-89
2023/02/11 03:46:38;;;;;;;71.05;43.45;;;-0.70;99.90;;;;;;4971997;28;20042;-88
2023/02/11 03:49:08;;;;;;;73.30;44.22;;;-0.70;99.90;;;;;;4955699;28;20029;-88
2023/02/11 03:51:35;;;;;;;69.03;42.60;;;-0.10;99.90;;;;;;4971471;28;20403;-88
2023/02/11 03:54:04;;;;;;;75.63;43.55;;;-0.10;99.90;;;;;;4972266;28;20027;-88
2023/02/11 03:56:35;;;;;;;71.35;42.45;;;-0.70;99.90;;;;;;4955592;28;20037;-88
2023/02/11 03:59:01;;;;;;;69.68;42.45;;;-0.60;99.90;;;;;;4972129;28;20031;-89
2023/02/11 04:01:27;;;;;;;69.22;41.92;;;-0.50;99.90;;;;;;4972077;28;20527;-89
2023/02/11 04:03:52;;;;;;;74.20;44.72;;;-0.60;99.90;;;;;;4971982;28;20033;-88
2023/02/11 04:06:18;;;;;;;71.05;43.42;;;-0.60;99.90;;;;;;4971538;28;20078;-89
2023/02/11 04:08:44;;;;;;;69.50;42.67;;;-0.70;99.90;;;;;;4971878;28;20027;-88
2023/02/11 04:11:09;;;;;;;69.82;41.42;;;-0.70;99.90;;;;;;4975354;28;20506;-88
2023/02/11 04:13:35;;;;;;;73.47;44.08;;;-0.70;99.90;;;;;;5002661;28;20040;-88
2023/02/11 04:16:00;;;;;;;68.43;41.58;;;-0.40;99.90;;;;;;5056485;28;20025;-87
2023/02/11 04:18:26;;;;;;;71.25;43.88;;;-0.80;99.90;;;;;;5038395;28;20048;-88
2023/02/11 04:20:52;;;;;;;73.15;42.90;;;-0.80;99.90;;;;;;5056053;28;20100;-88
2023/02/11 04:23:17;;;;;;;71.18;44.28;;;-0.70;99.90;;;;;;5056586;28;20056;-88
2023/02/11 04:25:43;;;;;;;73.30;43.50;;;-0.80;99.90;;;;;;5056741;28;20029;-88
2023/02/11 04:28:09;;;;;;;73.45;43.78;;;-0.90;99.90;;;;;;5056458;28;20477;-89
2023/02/11 04:30:34;;;;;;;72.72;43.42;;;-0.90;99.90;;;;;;5038172;28;20382;-88
2023/02/11 04:33:00;;;;;;;70.40;43.15;;;-0.90;99.90;;;;;;5020590;28;20128;-88
2023/02/11 04:35:26;;;;;;;72.72;44.33;;;-0.90;99.90;;;;;;5035635;28;20056;-89
2023/02/11 04:37:51;;;;;;;72.60;44.30;;;-1.00;99.90;;;;;;5018234;28;20072;-89
2023/02/11 04:40:17;;;;;;;71.38;42.72;;;-1.10;99.90;;;;;;5017889;28;20037;-88
2023/02/11 04:42:43;;;;;;;76.25;44.28;;;-1.00;99.90;;;;;;5035885;28;20083;-88
2023/02/11 04:45:09;;;;;;;75.43;44.47;;;-1.20;99.90;;;;;;5035785;28;20112;-88
2023/02/11 04:47:36;;;;;;;74.70;44.35;;;-1.20;99.90;;;;;;5017978;28;20112;-89
2023/02/11 04:50:02;;;;;;;78.82;44.72;;;-1.20;99.90;;;;;;5017679;28;20060;-88
2023/02/11 04:52:27;;;;;;;75.25;45.05;;;-1.20;99.90;;;;;;5035861;28;20104;-88
2023/02/11 04:54:53;;;;;;;78.43;44.35;;;-1.10;99.90;;;;;;5035116;28;20038;-88
2023/02/11 04:57:19;;;;;;;79.32;44.70;;;-1.10;99.90;;;;;;5035574;28;20037;-88
2023/02/11 04:59:44;;;;;;;78.80;44.72;;;-1.20;99.90;;;;;;5035472;28;20414;-88
2023/02/11 05:02:10;;;;;;;74.05;44.30;;;-1.20;99.90;;;;;;5035590;28;20083;-89
2023/02/11 05:04:35;;;;;;;74.57;44.42;;;-1.20;99.90;;;;;;5017549;28;20031;-88
2023/02/11 05:07:01;;;;;;;74.57;43.28;;;-1.20;99.90;;;;;;5017479;28;20052;-88
2023/02/11 05:09:27;;;;;;;77.63;44.63;;;-1.20;99.90;;;;;;5017587;28;20449;-88
2023/02/11 05:11:52;;;;;;;72.93;44.50;;;-1.30;99.90;;;;;;5035346;28;20026;-89
2023/02/11 05:14:18;;;;;;;74.68;44.22;;;-1.40;99.90;;;;;;5035136;28;20048;-88
2023/02/11 05:16:44;;;;;;;72.63;43.15;;;-1.40;99.90;;;;;;5035129;28;20032;-88
2023/02/11 05:19:09;;;;;;;75.45;44.60;;;-1.40;99.90;;;;;;5034768;28;20479;-88
2023/02/11 05:21:35;;;;;;;80.80;45.78;;;-1.50;99.90;;;;;;5034808;28;20482;-88
2023/02/11 05:24:01;;;;;;;77.38;44.28;;;-1.50;99.90;;;;;;5035112;28;20025;-88
2023/02/11 05:26:26;;;;;;;78.40;46.63;;;-1.40;99.90;;;;;;5035026;28;20031;-88
2023/02/11 05:28:52;;;;;;;81.22;46.42;;;-1.40;99.90;;;;;;5035032;28;20478;-88
2023/02/11 05:31:18;;;;;;;76.45;45.40;;;-1.30;99.90;;;;;;5038773;28;20051;-89
2023/02/11 05:33:43;;;;;;;77.80;45.90;;;-1.30;99.90;;;;;;5036654;28;20154;-88
2023/02/11 05:36:12;;;;;;;74.13;44.08;;;-1.40;99.90;;;;;;5055252;28;20021;-89
2023/02/11 05:38:38;;;;;;;78.88;46.50;;;-1.50;99.90;;;;;;5055313;28;20044;-88
2023/02/11 05:41:05;;;;;;;77.00;43.88;;;-1.40;99.90;;;;;;5055284;28;20067;-89
2023/02/11 05:43:31;;;;;;;79.18;44.63;;;-1.50;99.90;;;;;;5054900;28;20029;-89
2023/02/11 05:45:57;;;;;;;77.53;45.03;;;-1.40;99.90;;;;;;5036987;28;20032;-88
2023/02/11 05:48:23;;;;;;;81.78;45.80;;;-1.40;99.90;;;;;;5054261;28;20055;-88
2023/02/11 05:50:48;;;;;;;79.35;45.90;;;-1.10;99.90;;;;;;5036787;28;20021;-88
2023/02/11 05:53:14;;;;;;;79.07;46.42;;;-1.40;99.90;;;;;;5036680;28;20082;-88
2023/02/11 05:55:40;;;;;;;75.53;44.58;;;-1.40;99.90;;;;;;5040189;28;20040;-89
2023/02/11 05:58:06;;;;;;;75.38;44.72;;;-1.40;99.90;;;;;;5034396;28;20044;-88
2023/02/11 06:00:32;;;;;;;79.43;47.05;;;-1.10;99.90;;;;;;5034441;28;20461;-88
2023/02/11 06:02:58;;;;;;;79.10;44.88;;;-1.60;99.90;;;;;;5034054;28;20057;-88
2023/02/11 06:05:24;;;;;;;76.80;44.28;;;-1.50;99.90;;;;;;5034253;28;20100;-88
2023/02/11 06:07:49;;;;;;;82.78;46.40;;;-1.50;99.90;;;;;;5034064;28;20124;-88
2023/02/11 06:10:15;;;;;;;80.25;45.05;;;-1.50;99.90;;;;;;5033806;28;20060;-88
2023/02/11 06:12:41;;;;;;;74.97;42.85;;;-1.10;99.90;;;;;;5034027;28;20026;-89
2023/02/11 06:15:07;;;;;;;80.35;45.47;;;-1.60;99.90;;;;;;5033774;28;20375;-88
2023/02/11 06:17:32;;;;;;;79.80;44.67;;;-1.50;99.90;;;;;;5033598;28;20022;-88
2023/02/11 06:19:59;;;;;;;75.63;43.72;;;-1.00;99.90;;;;;;5016016;28;20109;-88
2023/02/11 06:22:26;;;;;;;75.30;45.03;;;-1.50;99.90;;;;;;5033594;28;20033;-88
2023/02/11 06:24:51;;;;;;;78.25;44.35;;;-1.60;99.90;;;;;;5015878;28;20057;-88
2023/02/11 06:27:17;;;;;;;79.55;44.95;;;-1.60;99.90;;;;;;5016139;28;20065;-88
2023/02/11 06:29:44;;;;;;;78.82;46.08;;;-1.80;99.90;;;;;;5033655;28;20033;-88
2023/02/11 06:32:10;;;;;;;81.60;45.65;;;-1.80;99.90;;;;;;5032524;28;20045;-89
2023/02/11 06:34:35;;;;;;;77.15;43.42;;;-1.80;99.90;;;;;;5033277;28;20390;-89
2023/02/11 06:37:01;;;;;;;86.40;47.08;;;-1.80;99.90;;;;;;5033790;28;20034;-89
2023/02/11 06:39:27;;;;;;;80.10;46.40;;;-1.90;99.90;;;;;;5033603;28;20025;-89
2023/02/11 06:41:52;;;;;;;85.95;47.92;;;-1.80;99.90;;;;;;5015683;28;20029;-88
2023/02/11 06:44:18;;;;;;;82.00;46.67;;;-1.60;99.90;;;;;;5033403;28;20026;-88
2023/02/11 06:46:44;;;;;;;85.70;46.85;;;-1.30;99.90;;;;;;5015270;28;20033;-88
2023/02/11 06:49:10;;;;;;;84.70;46.58;;;-1.40;99.90;;;;;;5033304;28;20033;-88
2023/02/11 06:51:35;;;;;;;86.85;47.70;;;-1.50;99.90;;;;;;5015712;28;20025;-88
2023/02/11 06:54:03;;;;;;;85.20;46.47;;;-1.40;99.90;;;;;;5033875;28;20025;-89
2023/02/11 06:56:29;;;;;;;81.15;45.03;;;-1.60;99.90;;;;;;5016038;28;20494;-89
2023/02/11 06:58:55;;;;;;;82.70;46.75;;;-1.50;99.90;;;;;;5033661;28;20021;-88
2023/02/11 07:01:22;;;;;;;82.78;46.85;;;-1.50;99.90;;;;;;5033539;28;20485;-88
2023/02/11 07:03:48;;;;;;;80.55;44.95;;;-1.50;99.90;;;;;;5033102;28;20026;-88
2023/02/11 07:06:18;;;;;;;76.95;44.50;;;-1.50;99.90;;;;;;5032924;28;20398;-88
2023/02/11 07:08:44;;;;;;;77.35;44.75;;;-1.60;99.90;;;;;;5032927;28;20053;-88
2023/02/11 07:11:17;;;;;;;76.80;44.83;;;-1.50;99.90;;;;;;5032922;28;20034;-88
2023/02/11 07:13:43;;;;;;;81.00;46.42;;;-1.50;99.90;;;;;;5032847;28;20109;-88
2023/02/11 07:16:12;;;;;;;78.50;44.30;;;-1.40;99.90;;;;;;5014842;28;20167;-89
2023/02/11 07:18:37;;;;;;;85.45;46.13;;;-1.30;99.90;;;;;;5032660;28;20017;-88
2023/02/11 07:21:05;;;;;;;73.57;44.47;;;-1.40;99.90;;;;;;5032799;28;20104;-88
2023/02/11 07:23:31;;;;;;;77.18;45.30;;;-1.20;99.90;;;;;;5032660;28;20021;-89
2023/02/11 07:25:57;;;;;;;83.65;47.08;;;-1.10;99.90;;;;;;5014913;28;20121;-88
2023/02/11 07:28:23;;;;;;;81.10;46.40;;;-0.90;99.90;;;;;;5032676;28;20112;-89
2023/02/11 07:30:48;;;;;;;78.68;44.22;;;-0.90;99.90;;;;;;5014468;28;20045;-88
2023/02/11 07:33:14;;;;;;;79.25;44.70;;;-0.90;99.90;;;;;;5052434;28;20041;-89
2023/02/11 07:35:39;;;;;;;76.10;44.70;;;-1.00;99.90;;;;;;5052679;28;20056;-89
2023/02/11 07:38:05;;;;;;;75.75;45.03;;;-0.90;99.90;;;;;;5034880;28;20115;-89
2023/02/11 07:40:31;;;;;;;82.22;45.63;;;-0.80;99.90;;;;;;5034911;28;20029;-88
2023/02/11 07:42:56;;;;;;;78.32;46.30;;;-0.70;99.90;;;;;;5034846;28;20037;-88
2023/02/11 07:45:23;;;;;;;78.45;45.45;;;-0.60;99.90;;;;;;5054616;28;20025;-88
2023/02/11 07:47:49;;;;;;;71.18;42.70;;;-0.40;99.90;;;;;;5056491;28;20025;-89
2023/02/11 07:50:16;;;;;;;71.35;42.22;;;-0.40;99.90;;;;;;5056404;28;20036;-88
2023/02/11 07:52:42;;;;;;;71.93;43.45;;;-0.30;99.90;;;;;;5056600;28;20025;-88
2023/02/11 07:55:08;;;;;;;71.63;41.95;;;-0.30;99.90;;;;;;5046805;28;20033;-89
2023/02/11 07:57:34;;;;;;;71.57;42.95;;;-0.20;99.90;;;;;;5036241;28;20482;-89
2023/02/11 08:00:00;;;;;;;76.95;42.92;;;-0.10;99.90;;;;;;5036230;28;20018;-89
2023/02/11 08:02:26;;;;;;;70.35;41.80;;;0.10;99.90;;;;;;5036494;28;20489;-88
2023/02/11 08:04:51;;;;;;;75.18;42.42;;;0.10;99.90;;;;;;5036487;28;20095;-89
2023/02/11 08:07:17;;;;;;;67.57;41.88;;;0.00;99.90;;;;;;5037023;28;20041;-89
2023/02/11 08:09:43;;;;;;;68.88;43.67;;;0.20;99.90;;;;;;5037098;28;20025;-89
2023/02/11 08:12:09;;;;;;;69.32;43.47;;;0.70;99.90;;;;;;5036791;28;20483;-88
2023/02/11 08:14:35;;;;;;;69.32;41.95;;;2.70;99.90;;;;;;5035628;28;20030;-89
2023/02/11 08:17:00;;;;;;;70.85;42.85;;;3.90;99.90;;;;;;5018434;28;20474;-89
2023/02/11 08:19:26;;;;;;;69.22;41.47;;;4.50;99.90;;;;;;5036190;28;20032;-90
2023/02/11 08:21:55;;;;;;;64.43;40.22;;;5.20;99.90;;;;;;5036117;28;20029;-88
2023/02/11 08:24:22;;;;;;;65.75;40.50;;;5.80;99.90;;;;;;5018411;28;20034;-89
2023/02/11 08:26:47;;;;;;;63.65;40.95;;;6.50;99.90;;;;;;5035605;28;20025;-88
2023/02/11 08:29:15;;;;;;;63.90;41.35;;;6.60;99.90;;;;;;5036023;28;20486;-89
2023/02/11 08:31:43;;;;;;;66.63;40.42;;;7.20;99.90;;;;;;5042423;28;20068;-89
2023/02/11 08:34:10;;;;;;;64.57;40.95;;;8.50;99.90;;;;;;5055883;28;20025;-89
2023/02/11 08:36:37;;;;;;;65.35;42.10;;;9.40;99.90;;;;;;5037880;28;20070;-89
2023/02/11 08:39:06;;;;;;;63.88;41.83;;;9.70;99.90;;;;;;5037844;28;20124;-90
2023/02/11 08:41:34;;;;;;;62.67;43.00;;;10.20;99.90;;;;;;5055216;28;20091;-90
2023/02/11 08:43:59;;;;;;;62.33;39.97;;;10.60;99.90;;;;;;5055476;28;20025;-90
2023/02/11 08:46:26;;;;;;;63.60;42.53;;;10.70;99.90;;;;;;5037433;28;20032;-90
2023/02/11 08:48:52;;;;;;;63.05;42.40;;;10.40;99.90;;;;;;5037463;28;20123;-90
2023/02/11 08:51:20;;;;;;;62.13;42.83;;;11.00;99.90;;;;;;5055418;28;20108;-89
2023/02/11 08:53:46;;;;;;;59.33;41.65;;;11.80;99.90;;;;;;5037640;28;20036;-90
2023/02/11 08:56:13;;;;;;;66.80;43.58;;;12.90;99.90;;;;;;5018278;28;20072;-90
2023/02/11 08:58:39;;;;;;;66.10;43.67;;;13.10;99.90;;;;;;5017289;28;20021;-90
2023/02/11 09:01:11;;;;;;;68.75;45.03;;;11.60;99.90;;;;;;5035657;28;20501;-90
2023/02/11 09:03:36;;;;;;;71.53;44.15;;;9.90;99.90;;;;;;5035314;28;20558;-90
2023/02/11 09:06:05;;;;;;;74.15;44.80;;;11.80;99.90;;;;;;5035361;28;20060;-90
2023/02/11 09:08:34;;;;;;;72.88;46.67;;;12.30;99.90;;;;;;5035275;28;20045;-90
2023/02/11 09:11:00;;;;;;;68.60;47.10;;;12.40;99.90;;;;;;5035353;28;20021;-90
2023/02/11 09:13:26;;;;;;;66.30;44.15;;;12.70;99.90;;;;;;5035652;28;20470;-91
2023/02/11 09:15:52;;;;;;;72.53;45.65;;;11.90;99.90;;;;;;5035601;28;20033;-91
2023/02/11 09:18:18;;;;;;;63.75;44.17;;;12.50;99.90;;;;;;5017630;28;20033;-91
2023/02/11 09:20:43;;;;;;;64.45;44.95;;;12.50;99.90;;;;;;5037776;28;20053;-91
2023/02/11 09:23:09;;;;;;;70.20;45.75;;;13.70;99.90;;;;;;5020712;28;20060;-91
2023/02/11 09:25:38;;;;;;;69.13;45.88;;;13.70;99.90;;;;;;5019754;28;20045;-91
2023/02/11 09:28:04;;;;;;;68.85;46.25;;;14.10;99.90;;;;;;5035299;28;20034;-91
2023/02/11 09:30:30;;;;;;;68.35;45.30;;;15.00;99.90;;;;;;5035145;28;20037;-91
2023/02/11 09:32:55;;;;;;;62.25;46.20;;;15.90;99.90;;;;;;5035107;28;20034;-92
2023/02/11 09:35:21;;;;;;;64.13;47.35;;;16.30;99.90;;;;;;5017305;28;20021;-91
2023/02/11 09:37:46;;;;;;;68.10;49.13;;;16.40;99.90;;;;;;5034847;28;20037;-92
2023/02/11 09:40:14;;;;;;;63.70;48.80;;;15.80;99.90;;;;;;5034455;28;20030;-92
2023/02/11 09:42:48;;;;;;;66.28;49.35;;;16.30;99.90;;;;;;5035151;28;20025;-91
2023/02/11 09:45:23;;;;;;;67.85;50.20;;;15.80;99.90;;;;;;5017259;28;20386;-93
2023/02/11 09:47:56;;;;;;;65.05;49.53;;;16.80;99.90;;;;;;5017185;28;20113;-92
2023/02/11 09:50:33;;;;;;;65.30;50.92;;;17.40;99.90;;;;;;5034751;28;20025;-92
2023/02/11 09:53:13;;;;;;;66.88;52.20;;;17.70;99.90;;;;;;5036295;28;20032;-92
2023/02/11 09:55:45;;;;;;;62.28;50.08;;;17.10;99.90;;;;;;5034113;28;20033;-92
2023/02/11 09:58:29;;;;;;;63.38;50.33;;;18.80;99.90;;;;;;5034680;28;20481;-92
2023/02/11 10:01:12;;;;;;;57.00;47.45;;;19.60;99.90;;;;;;5016782;28;20363;-92
2023/02/11 10:04:00;;;;;;;58.63;48.33;;;19.60;99.90;;;;;;5034353;28;20033;-92
2023/02/11 10:06:39;;;;;;;59.30;48.08;;;19.90;99.90;;;;;;5033682;28;20033;-92
2023/02/11 10:09:23;;;;;;;62.20;50.17;;;19.80;99.90;;;;;;5033395;28;20041;-92
2023/02/11 10:12:03;;;;;;;62.40;49.25;;;19.70;99.90;;;;;;5034200;28;20032;-91
2023/02/11 10:15:05;;;;;;;60.60;50.08;;;20.20;99.90;;;;;;5034583;28;20044;-92
2023/02/11 10:17:48;;;;;;;60.20;50.83;;;21.60;99.90;;;;;;4953872;29;20144;-91
2023/02/11 10:20:37;;;;;;;63.95;54.65;;;21.60;99.90;;;;;;4953824;29;20050;-91
2023/02/11 10:23:16;;;;;;;63.40;53.88;;;21.10;99.90;;;;;;4953927;29;20031;-92
2023/02/11 10:25:45;;;;;;;64.88;52.47;;;21.80;99.90;;;;;;4937925;29;20027;-92
2023/02/11 10:28:15;;;;;;;63.70;54.10;;;20.90;99.90;;;;;;4953660;29;20067;-92
2023/02/11 10:31:16;;;;;;;57.42;50.78;;;21.60;99.90;;;;;;4953335;29;20054;-91
2023/02/11 10:34:05;;;;;;;64.78;53.05;;;21.50;99.90;;;;;;4926416;29;20040;-91
2023/02/11 10:36:41;;;;;;;60.35;53.40;;;20.60;99.90;;;;;;4935917;29;20042;-91
2023/02/11 10:39:22;;;;;;;62.72;53.20;;;20.60;99.90;;;;;;4934905;29;20146;-91
2023/02/11 10:42:04;;;;;;;60.15;53.00;;;22.20;99.90;;;;;;4918236;29;20040;-91
2023/02/11 10:44:35;;;;;;;62.97;53.92;;;22.10;99.90;;;;;;4934079;29;20028;-91
2023/02/11 10:47:35;;;;;;;60.90;53.47;;;21.50;99.90;;;;;;4934081;29;20581;-91
2023/02/11 10:50:24;;;;;;;58.63;50.40;;;22.00;99.90;;;;;;4915170;29;20519;-91
2023/02/11 10:52:50;;;;;;;57.95;51.22;;;22.30;99.90;;;;;;4934015;29;20520;-91
2023/02/11 10:55:19;;;;;;;57.97;51.67;;;21.60;99.90;;;;;;5007087;28;20034;-91
2023/02/11 10:58:00;;;;;;;59.63;52.58;;;21.70;99.90;;;;;;5033134;28;20104;-92
2023/02/11 11:00:36;;;;;;;56.25;50.20;;;23.40;99.90;;;;;;5033123;28;20033;-91
2023/02/11 11:03:04;;;;;;;55.30;49.20;;;23.50;99.90;;;;;;5033662;28;20024;-91
2023/02/11 11:05:37;;;;;;;53.88;47.58;;;22.10;99.90;;;;;;5033167;28;20021;-91
2023/02/11 11:08:07;;;;;;;51.88;46.25;;;21.10;99.90;;;;;;5032884;28;20040;-92
2023/02/11 11:10:35;;;;;;;53.25;47.42;;;20.90;99.90;;;;;;5033018;28;20028;-91
2023/02/11 11:13:01;;;;;;;53.95;48.17;;;22.50;99.90;;;;;;5033172;28;20045;-91
2023/02/11 11:15:30;;;;;;;57.13;50.85;;;23.50;99.90;;;;;;5032890;28;20025;-91
2023/02/11 11:18:17;;;;;;;56.65;50.45;;;23.80;99.90;;;;;;5015150;28;20517;-91
2023/02/11 11:20:59;;;;;;;59.28;52.97;;;24.80;99.90;;;;;;5032988;28;20018;-91
2023/02/11 11:23:26;;;;;;;58.38;51.47;;;23.50;99.90;;;;;;5033012;28;20022;-91
2023/02/11 11:26:12;;;;;;;56.75;50.75;;;23.70;99.90;;;;;;5032648;28;20673;-91
2023/02/11 11:28:39;;;;;;;52.78;47.22;;;23.80;99.90;;;;;;5032628;28;20068;-91
2023/02/11 11:31:17;;;;;;;56.08;50.20;;;23.40;99.90;;;;;;5034387;28;20046;-92
2023/02/11 11:33:44;;;;;;;53.60;47.92;;;23.70;99.90;;;;;;5052692;28;20390;-91
2023/02/11 11:36:14;;;;;;;52.42;47.03;;;23.30;99.90;;;;;;5034572;28;20021;-92
2023/02/11 11:38:47;;;;;;;54.88;48.97;;;23.40;99.90;;;;;;5052629;28;20033;-92
2023/02/11 11:41:25;;;;;;;51.78;46.28;;;24.50;99.90;;;;;;5052612;28;20040;-91
2023/02/11 11:44:20;;;;;;;54.00;48.33;;;23.60;99.90;;;;;;5052527;28;20434;-92
2023/02/11 11:46:52;;;;;;;68.07;58.67;;;23.80;99.90;;;;;;5052510;28;20049;-91
2023/02/11 11:49:57;;;;;;;52.17;46.78;;;23.00;99.90;;;;;;5034649;28;20116;-92
2023/02/11 11:52:31;;;;;;;53.60;47.92;;;23.80;99.90;;;;;;5041772;28;20041;-92
2023/02/11 11:55:10;;;;;;;55.28;49.33;;;23.30;99.90;;;;;;5044871;28;20027;-92
2023/02/11 11:57:38;;;;;;;55.42;49.42;;;23.30;99.90;;;;;;5032402;28;20025;-91
2023/02/11 12:00:09;;;;;;;55.35;49.53;;;23.50;99.90;;;;;;5014742;28;20060;-92
2023/02/11 12:02:50;;;;;;;54.75;48.85;;;23.40;99.90;;;;;;5014461;28;20083;-91
2023/02/11 12:05:19;;;;;;;49.97;44.80;;;22.50;99.90;;;;;;5032161;28;20079;-92
2023/02/11 12:08:35;;;;;;;53.08;47.45;;;22.40;99.90;;;;;;5032319;28;20393;-91
2023/02/11 12:11:20;;;;;;;52.58;47.05;;;23.70;99.90;;;;;;4951993;29;20122;-91
2023/02/11 12:13:54;;;;;;;53.92;48.33;;;23.50;99.90;;;;;;4951860;28;20548;-92
2023/02/11 12:16:41;;;;;;;50.92;45.78;;;22.70;99.90;;;;;;4952390;29;20032;-92
2023/02/11 12:19:18;;;;;;;54.78;49.00;;;23.20;99.90;;;;;;4951815;29;20043;-92
2023/02/11 12:21:50;;;;;;;52.33;46.90;;;21.40;99.90;;;;;;4952468;29;20051;-91
2023/02/11 12:24:28;;;;;;;53.40;47.95;;;23.20;99.90;;;;;;4951880;29;20115;-92
2023/02/11 12:27:16;;;;;;;51.70;46.30;;;22.80;99.90;;;;;;4952220;29;20047;-92
2023/02/11 12:30:17;;;;;;;50.13;45.25;;;22.50;99.90;;;;;;4951939;28;20484;-92
2023/02/11 12:32:49;;;;;;;47.78;42.75;;;23.10;99.90;;;;;;4955265;29;20051;-92
2023/02/11 12:35:21;;;;;;;49.20;43.97;;;22.60;99.90;;;;;;4939002;29;20400;-91
2023/02/11 12:38:07;;;;;;;46.53;41.78;;;22.50;99.90;;;;;;4955504;29;20067;-91
2023/02/11 12:41:00;;;;;;;46.47;41.78;;;23.00;99.90;;;;;;4955658;29;20256;-92
2023/02/11 12:43:29;;;;;;;47.60;42.58;;;22.00;99.90;;;;;;4955554;29;20527;-92
2023/02/11 12:46:03;;;;;;;50.92;45.58;;;21.60;99.90;;;;;;4982465;28;20394;-92
2023/02/11 12:48:29;;;;;;;47.53;42.67;;;22.70;99.90;;;;;;5035274;28;20513;-91